Time;durP1;ratioP1;P1;durP2;ratioP2;P2;SDS_P1;SDS_P2;PMS_P1;PMS_P2;Temp;Humidity;BMP_temperature;BMP_pressure;BME280_temperature;BME280_humidity;BME280_pressure;Samples;Min_cycle;Max_cycle;Signal;HPM_P1;HPM_P2
2024/03/28 00:07:07;;;;;;;;;;;7.60;99.90;;;;;;6731301;88;20650;-78
2024/03/28 00:17:08;;;;;;;;;;;7.50;99.90;;;;;;6727502;88;20566;-78
2024/03/28 00:27:08;;;;;;;;;;;7.50;99.90;;;;;;6738620;88;20163;-77
2024/03/28 00:37:09;;;;;;;;;;;7.50;99.90;;;;;;6729989;88;20515;-77
2024/03/28 00:47:09;;;;;;;;;;;7.40;99.90;;;;;;6743257;88;20113;-77
2024/03/28 00:57:10;;;;;;;;;;;7.30;99.90;;;;;;6736344;88;20082;-78
2024/03/28 01:07:10;;;;;;;;;;;7.40;99.90;;;;;;6731482;88;20055;-78
2024/03/28 01:17:11;;;;;;;;;;;7.30;99.90;;;;;;6732977;88;20633;-77
2024/03/28 01:27:11;;;;;;;;;;;7.30;99.90;;;;;;6729509;88;20059;-78
2024/03/28 01:37:12;;;;;;;;;;;7.20;99.90;;;;;;6735677;77;20059;31
2024/03/28 01:47:13;;;;;;;;;;;7.10;99.90;;;;;;6704744;88;20125;-77
2024/03/28 01:57:14;;;;;;;;;;;7.10;99.90;;;;;;6704012;88;20580;-77
2024/03/28 02:07:14;;;;;;;;;;;7.00;99.90;;;;;;6703632;88;20063;-77
2024/03/28 02:17:15;;;;;;;;;;;7.00;99.90;;;;;;6704580;88;20150;-77
2024/03/28 02:27:15;;;;;;;;;;;6.90;99.90;;;;;;6707448;88;20571;-77
2024/03/28 02:37:16;;;;;;;;;;;6.90;99.90;;;;;;6709621;88;20058;-81
2024/03/28 02:47:16;;;;;;;;;;;6.80;99.90;;;;;;6740042;88;20066;-77
2024/03/28 02:57:23;;;;;;;;;;;6.70;99.90;;;;;;6734116;88;20070;-78
2024/03/28 03:07:24;;;;;;;;;;;6.60;99.90;;;;;;6741573;88;20200;-77
2024/03/28 03:17:25;;;;;;;;;;;6.60;99.90;;;;;;6736480;88;20120;-79
2024/03/28 03:27:32;;;;;;;;;;;6.50;99.90;;;;;;6740099;88;20076;-79
2024/03/28 03:37:34;;;;;;;;;;;6.50;99.90;;;;;;6739926;88;20077;-79
2024/03/28 03:47:34;;;;;;;;;;;6.40;99.90;;;;;;6739555;88;20166;-78
2024/03/28 03:57:35;;;;;;;;;;;6.40;99.90;;;;;;6741306;88;20159;-77
2024/03/28 04:07:35;;;;;;;;;;;6.50;99.90;;;;;;6749114;88;20635;-79
2024/03/28 04:17:36;;;;;;;;;;;6.70;99.90;;;;;;6741570;88;20061;-78
2024/03/28 04:27:36;;;;;;;;;;;6.50;99.90;;;;;;6736995;88;20064;-77
2024/03/28 04:37:37;;;;;;;;;;;6.40;99.90;;;;;;6737906;88;20079;-77
2024/03/28 04:47:37;;;;;;;;;;;6.30;99.90;;;;;;6737607;88;20053;-78
2024/03/28 04:57:38;;;;;;;;;;;6.20;99.90;;;;;;6736309;88;20179;-78
2024/03/28 05:07:38;;;;;;;;;;;6.10;99.90;;;;;;6736733;88;20057;-79
2024/03/28 05:17:39;;;;;;;;;;;6.10;99.90;;;;;;6736778;88;20073;-79
2024/03/28 05:27:39;;;;;;;;;;;6.00;99.90;;;;;;6741441;88;20058;-80
2024/03/28 05:37:40;;;;;;;;;;;6.10;99.90;;;;;;6740715;88;20069;-78
2024/03/28 05:47:40;;;;;;;;;;;5.90;99.90;;;;;;6734775;88;20094;-77
2024/03/28 05:57:41;;;;;;;;;;;6.10;99.90;;;;;;6735802;88;20086;-78
2024/03/28 06:07:41;;;;;;;;;;;6.30;99.90;;;;;;6740104;88;20561;-79
2024/03/28 06:17:41;;;;;;;;;;;6.40;99.90;;;;;;6732673;88;20144;-78
2024/03/28 06:27:42;;;;;;;;;;;6.70;99.90;;;;;;6733681;88;20061;-78
2024/03/28 06:37:42;;;;;;;;;;;7.30;99.90;;;;;;6730946;88;20115;-79
2024/03/28 06:47:43;;;;;;;;;;;7.30;99.90;;;;;;6732588;88;20107;-79
2024/03/28 06:57:43;;;;;;;;;;;7.50;99.90;;;;;;6733251;88;20465;-79
2024/03/28 07:07:44;;;;;;;;;;;7.60;99.90;;;;;;6740579;88;20073;-78
2024/03/28 07:17:44;;;;;;;;;;;7.70;99.90;;;;;;6744519;88;20063;-79
2024/03/28 07:27:45;;;;;;;;;;;7.60;99.90;;;;;;6744058;88;20124;-79
2024/03/28 07:47:48;;;;;;;;;;;7.90;99.90;;;;;;6741379;88;20085;-76
2024/03/28 07:57:50;;;;;;;;;;;8.00;99.90;;;;;;6734099;88;20124;-78
2024/03/28 08:07:51;;;;;;;;;;;8.10;99.90;;;;;;6728011;88;20064;-77
2024/03/28 08:17:51;;;;;;;;;;;8.00;99.90;;;;;;6730983;88;20077;-77
2024/03/28 08:27:52;;;;;;;;;;;8.10;99.90;;;;;;6731101;88;20070;-78
2024/03/28 08:37:53;;;;;;;;;;;8.30;99.90;;;;;;6725697;88;20138;-77
2024/03/28 08:47:56;;;;;;;;;;;8.50;99.90;;;;;;6731637;88;20094;-76
2024/03/28 08:57:57;;;;;;;;;;;8.50;99.90;;;;;;6730648;88;20549;-77
2024/03/28 09:07:57;;;;;;;;;;;9.00;99.90;;;;;;6723336;88;20084;-77
2024/03/28 09:17:58;;;;;;;;;;;9.20;99.90;;;;;;6742491;88;20513;-77
2024/03/28 09:27:59;;;;;;;;;;;9.60;99.90;;;;;;6729129;88;20190;-77
2024/03/28 09:38:00;;;;;;;;;;;9.40;99.90;;;;;;6729482;88;20104;-77
2024/03/28 09:48:01;;;;;;;;;;;9.40;99.90;;;;;;6728808;88;20509;-77
2024/03/28 09:58:03;;;;;;;;;;;9.50;99.90;;;;;;6728456;88;20067;-77
2024/03/28 10:08:04;;;;;;;;;;;9.40;99.90;;;;;;6729520;88;20134;-77
2024/03/28 10:18:06;;;;;;;;;;;9.40;99.90;;;;;;6738432;88;20101;-77
2024/03/28 10:28:06;;;;;;;;;;;9.70;99.90;;;;;;6731338;88;20080;-77
2024/03/28 10:38:07;;;;;;;;;;;10.10;99.90;;;;;;6724094;88;20082;-77
2024/03/28 10:48:09;;;;;;;;;;;11.40;99.90;;;;;;6731943;88;20178;-78
2024/03/28 10:58:10;;;;;;;;;;;11.70;99.90;;;;;;6731295;88;20087;-77
2024/03/28 11:08:11;;;;;;;;;;;11.80;99.90;;;;;;6727991;88;20124;-78
2024/03/28 11:18:14;;;;;;;;;;;12.60;99.50;;;;;;6729236;88;20590;-77
2024/03/28 11:28:15;;;;;;;;;;;13.50;98.00;;;;;;6733513;88;20085;-77
2024/03/28 11:38:15;;;;;;;;;;;14.70;97.10;;;;;;6731125;88;20064;-78
2024/03/28 11:48:16;;;;;;;;;;;15.10;95.20;;;;;;6728707;88;20513;-78
2024/03/28 11:58:17;;;;;;;;;;;15.60;94.40;;;;;;6741573;88;20080;-77
2024/03/28 12:08:21;;;;;;;;;;;13.70;95.90;;;;;;6733655;88;20110;-78
2024/03/28 12:18:21;;;;;;;;;;;13.00;98.00;;;;;;6736489;88;20051;-78
2024/03/28 12:28:23;;;;;;;;;;;12.60;99.60;;;;;;6730450;88;20168;-78
2024/03/28 12:38:24;;;;;;;;;;;11.60;99.90;;;;;;6734202;88;20054;-77
2024/03/28 12:48:25;;;;;;;;;;;12.20;99.90;;;;;;6730612;88;20063;-78
2024/03/28 12:58:26;;;;;;;;;;;12.70;99.80;;;;;;6734580;88;20055;-78
2024/03/28 13:08:26;;;;;;;;;;;14.00;99.00;;;;;;6734259;88;20499;-78
2024/03/28 13:18:27;;;;;;;;;;;14.60;97.70;;;;;;6733312;88;20208;-78
2024/03/28 13:28:27;;;;;;;;;;;13.70;98.00;;;;;;6731443;88;20600;-79
2024/03/28 13:48:32;;;;;;;;;;;14.10;95.40;;;;;;6726024;88;20128;-79
2024/03/28 13:58:33;;;;;;;;;;;14.00;96.10;;;;;;6726914;88;20117;-79
2024/03/28 14:08:33;;;;;;;;;;;14.70;95.80;;;;;;6726281;88;20061;-79
2024/03/28 14:18:34;;;;;;;;;;;13.70;96.40;;;;;;6721466;88;21778;-78
2024/03/28 14:28:35;;;;;;;;;;;13.20;96.90;;;;;;6721284;88;20116;-78
2024/03/28 14:38:36;;;;;;;;;;;13.20;97.40;;;;;;6723893;88;20228;-79
2024/03/28 14:48:37;;;;;;;;;;;12.90;98.10;;;;;;6723415;88;20083;-78
2024/03/28 14:58:37;;;;;;;;;;;10.80;99.90;;;;;;6721371;88;20127;-78
2024/03/28 15:08:37;;;;;;;;;;;10.40;99.90;;;;;;6720739;88;20522;-78
2024/03/28 15:18:38;;;;;;;;;;;10.10;99.90;;;;;;6716597;88;20138;-78
2024/03/28 15:28:39;;;;;;;;;;;10.30;99.90;;;;;;6723065;88;20058;-78
2024/03/28 15:38:39;;;;;;;;;;;10.40;99.90;;;;;;6722745;88;20063;-78
2024/03/28 15:48:39;;;;;;;;;;;10.40;99.90;;;;;;6721891;88;20070;-79
2024/03/28 15:58:40;;;;;;;;;;;10.40;99.90;;;;;;6716940;88;20054;-78
2024/03/28 16:08:41;;;;;;;;;;;10.40;99.90;;;;;;6717486;88;20535;-80
2024/03/28 16:18:43;;;;;;;;;;;10.30;99.90;;;;;;6721328;88;20067;-78
2024/03/28 16:28:43;;;;;;;;;;;10.50;99.90;;;;;;6720179;88;20065;-79
2024/03/28 16:38:44;;;;;;;;;;;10.50;99.90;;;;;;6719711;88;20134;-80
2024/03/28 16:48:44;;;;;;;;;;;10.60;99.90;;;;;;6722034;88;20826;-79
2024/03/28 16:58:44;;;;;;;;;;;10.50;99.90;;;;;;6721631;88;20065;-78
2024/03/28 17:08:46;;;;;;;;;;;10.80;99.90;;;;;;6715861;88;20538;-78
2024/03/28 17:18:46;;;;;;;;;;;11.10;99.90;;;;;;6733605;88;20079;-78
2024/03/28 17:28:46;;;;;;;;;;;11.20;99.90;;;;;;6724072;88;20502;-78
2024/03/28 17:38:49;;;;;;;;;;;11.20;99.90;;;;;;6728956;88;20062;-78
2024/03/28 17:48:50;;;;;;;;;;;11.00;99.90;;;;;;6726118;88;20078;-78
2024/03/28 17:58:52;;;;;;;;;;;11.20;99.90;;;;;;6725688;88;20105;-77
2024/03/28 18:08:52;;;;;;;;;;;11.10;99.90;;;;;;6732202;88;20056;-77
2024/03/28 18:18:53;;;;;;;;;;;11.10;99.90;;;;;;6734821;88;20082;-76
2024/03/28 18:28:53;;;;;;;;;;;11.20;99.90;;;;;;6729161;88;20055;-76
2024/03/28 18:38:54;;;;;;;;;;;10.90;99.90;;;;;;6725771;88;20078;-76
2024/03/28 18:48:54;;;;;;;;;;;10.70;99.90;;;;;;6725757;88;20145;-78
2024/03/28 18:58:54;;;;;;;;;;;10.50;99.90;;;;;;6733064;88;20070;-78
2024/03/28 19:08:55;;;;;;;;;;;10.60;99.90;;;;;;6721206;88;20062;-79
2024/03/28 19:18:55;;;;;;;;;;;10.60;99.90;;;;;;6725945;88;20048;-78
2024/03/28 19:28:56;;;;;;;;;;;10.60;99.90;;;;;;6727011;88;20062;-78
2024/03/28 19:49:00;;;;;;;;;;;10.50;99.90;;;;;;6739797;88;20158;-78
2024/03/28 19:59:01;;;;;;;;;;;10.90;99.90;;;;;;6721556;88;20067;-77
2024/03/28 20:09:01;;;;;;;;;;;10.70;99.90;;;;;;6721571;88;20097;-78
2024/03/28 20:19:02;;;;;;;;;;;10.70;99.90;;;;;;6720855;88;20099;-78
2024/03/28 20:29:02;;;;;;;;;;;10.50;99.90;;;;;;6716181;88;20059;-79
2024/03/28 20:39:03;;;;;;;;;;;10.50;99.90;;;;;;6722643;88;20517;-78
2024/03/28 20:49:03;;;;;;;;;;;10.50;99.90;;;;;;6727473;88;20152;-76
2024/03/28 20:59:05;;;;;;;;;;;10.30;99.90;;;;;;6724757;88;20524;-78
2024/03/28 21:19:24;;;;;;;;;;;10.30;99.90;;;;;;6721902;88;20066;-78
2024/03/28 21:29:25;;;;;;;;;;;10.30;99.90;;;;;;6721312;88;20494;-78
2024/03/28 21:39:25;;;;;;;;;;;10.20;99.90;;;;;;6719390;88;20121;-76
2024/03/28 21:49:26;;;;;;;;;;;10.20;99.90;;;;;;6716816;88;20076;-77
2024/03/28 21:59:26;;;;;;;;;;;10.00;99.90;;;;;;6720396;88;20088;-78
2024/03/28 22:09:28;;;;;;;;;;;9.90;99.90;;;;;;6720039;88;20058;-78
2024/03/28 22:19:28;;;;;;;;;;;9.90;99.90;;;;;;6714705;88;20152;-79
2024/03/28 22:29:29;;;;;;;;;;;9.90;99.90;;;;;;6719236;88;20136;-77
2024/03/28 22:39:29;;;;;;;;;;;9.90;99.90;;;;;;6720999;88;20054;-77
2024/03/28 22:49:30;;;;;;;;;;;9.80;99.90;;;;;;6724356;88;20684;-80
2024/03/28 22:59:31;;;;;;;;;;;9.40;99.90;;;;;;6723009;88;20078;-79
2024/03/28 23:09:31;;;;;;;;;;;9.10;99.90;;;;;;6722796;88;20477;-79
2024/03/28 23:19:32;;;;;;;;;;;9.10;99.90;;;;;;6723315;88;20073;-78
2024/03/28 23:29:32;;;;;;;;;;;9.00;99.90;;;;;;6722732;88;20474;-78
2024/03/28 23:39:32;;;;;;;;;;;9.00;99.90;;;;;;6720715;88;20141;-78
2024/03/28 23:49:33;;;;;;;;;;;9.00;99.90;;;;;;6723120;88;20197;-79
2024/03/28 23:59:34;;;;;;;;;;;9.00;99.90;;;;;;6734104;88;20050;-78
